LGZA

Dionysios Solomos Airport

Zakynthos Island, Greece
TAF LGZA 182000Z 1821/1906 36012KT 9999 FEW016 SCT020 BKN070
Issued Valid From Valid To
Dec-18 @ 20:00 UTC
(3 hours ago)
Dec-18 @ 21:00 UTC
(2 hours ago)
Dec-19 @ 06:00 UTC
(in 7 hours)
Dec-18 @ 21:00 to Dec-19 @ 06:00
TAF LGZA 182000Z 1821/1906 36012KT 9999 FEW016 SCT020 BKN070
Wind Visibility Clouds
360° at 12 knots 10,000+ meters
  • Few at 1,600' AGL
  • Scattered at 2,000' AGL
  • Broken at 7,000' AGL
TAF LGZA 182000Z 1821/1906 36012KT 9999 FEW016 SCT020 BKN070
Issued Dec-18 @ 20:00 UTC
(3 hours ago)
Valid From Dec-18 @ 21:00 UTC
(2 hours ago)
Valid To Dec-19 @ 06:00 UTC
(in 7 hours)
Dec-18 @ 21:00 - Dec-19 @ 06:00
Wind Visibility
360° at 12 knots 10,000+ meters
Clouds
  • Few at 1,600' AGL
  • Scattered at 2,000' AGL
  • Broken at 7,000' AGL